sensor_id;sensor_type;location;lat;lon;timestamp;temperature;humidity
21662;DHT22;10992;48.170;8.596;2024-01-30T00:00:25;2.90;99.90
21662;DHT22;10992;48.170;8.596;2024-01-30T00:02:53;2.90;99.90
21662;DHT22;10992;48.170;8.596;2024-01-30T00:05:19;2.90;99.90
21662;DHT22;10992;48.170;8.596;2024-01-30T00:07:46;3.00;99.90
21662;DHT22;10992;48.170;8.596;2024-01-30T00:10:13;3.10;99.90
21662;DHT22;10992;48.170;8.596;2024-01-30T00:12:40;3.10;99.90
21662;DHT22;10992;48.170;8.596;2024-01-30T00:15:07;3.10;99.90
21662;DHT22;10992;48.170;8.596;2024-01-30T00:17:37;3.00;99.90
21662;DHT22;10992;48.170;8.596;2024-01-30T00:20:04;3.00;99.90
21662;DHT22;10992;48.170;8.596;2024-01-30T00:22:36;3.00;99.90
21662;DHT22;10992;48.170;8.596;2024-01-30T00:25:03;3.00;99.90
21662;DHT22;10992;48.170;8.596;2024-01-30T00:27:30;3.00;99.90
21662;DHT22;10992;48.170;8.596;2024-01-30T00:29:57;3.10;99.90
21662;DHT22;10992;48.170;8.596;2024-01-30T00:32:24;3.10;99.90
21662;DHT22;10992;48.170;8.596;2024-01-30T00:34:50;3.10;99.90
21662;DHT22;10992;48.170;8.596;2024-01-30T00:37:18;3.20;99.90
21662;DHT22;10992;48.170;8.596;2024-01-30T00:39:45;3.20;99.90
21662;DHT22;10992;48.170;8.596;2024-01-30T00:42:12;3.30;99.90
21662;DHT22;10992;48.170;8.596;2024-01-30T00:44:39;3.20;99.90
21662;DHT22;10992;48.170;8.596;2024-01-30T00:47:06;3.20;99.90
21662;DHT22;10992;48.170;8.596;2024-01-30T00:49:33;3.20;99.90
21662;DHT22;10992;48.170;8.596;2024-01-30T00:52:00;3.20;99.90
21662;DHT22;10992;48.170;8.596;2024-01-30T00:54:27;3.20;99.90
21662;DHT22;10992;48.170;8.596;2024-01-30T00:56:54;3.20;99.90
21662;DHT22;10992;48.170;8.596;2024-01-30T00:59:21;3.20;99.90
21662;DHT22;10992;48.170;8.596;2024-01-30T01:01:48;3.30;99.90
21662;DHT22;10992;48.170;8.596;2024-01-30T01:04:15;3.20;99.90
21662;DHT22;10992;48.170;8.596;2024-01-30T01:06:43;3.20;99.90
21662;DHT22;10992;48.170;8.596;2024-01-30T01:09:11;3.30;99.90
21662;DHT22;10992;48.170;8.596;2024-01-30T01:11:40;3.40;99.90
21662;DHT22;10992;48.170;8.596;2024-01-30T01:14:07;3.30;99.90
21662;DHT22;10992;48.170;8.596;2024-01-30T01:16:35;3.30;99.90
21662;DHT22;10992;48.170;8.596;2024-01-30T01:19:02;3.30;99.90
21662;DHT22;10992;48.170;8.596;2024-01-30T01:21:30;3.40;99.90
21662;DHT22;10992;48.170;8.596;2024-01-30T01:23:56;3.40;99.90
21662;DHT22;10992;48.170;8.596;2024-01-30T01:26:23;3.40;99.90
21662;DHT22;10992;48.170;8.596;2024-01-30T01:28:50;3.40;99.90
21662;DHT22;10992;48.170;8.596;2024-01-30T01:31:17;3.30;99.90
21662;DHT22;10992;48.170;8.596;2024-01-30T01:33:45;3.20;99.90
21662;DHT22;10992;48.170;8.596;2024-01-30T01:36:13;3.20;99.90
21662;DHT22;10992;48.170;8.596;2024-01-30T01:38:40;3.30;99.90
21662;DHT22;10992;48.170;8.596;2024-01-30T01:41:07;3.40;99.90
21662;DHT22;10992;48.170;8.596;2024-01-30T01:43:34;3.40;99.90
21662;DHT22;10992;48.170;8.596;2024-01-30T01:46:02;3.50;99.90
21662;DHT22;10992;48.170;8.596;2024-01-30T01:48:29;3.70;99.90
21662;DHT22;10992;48.170;8.596;2024-01-30T01:50:56;3.70;99.90
21662;DHT22;10992;48.170;8.596;2024-01-30T01:53:24;3.80;99.90
21662;DHT22;10992;48.170;8.596;2024-01-30T01:55:52;3.80;99.90
21662;DHT22;10992;48.170;8.596;2024-01-30T01:58:21;3.80;99.90
21662;DHT22;10992;48.170;8.596;2024-01-30T02:00:50;3.70;99.90
21662;DHT22;10992;48.170;8.596;2024-01-30T02:03:18;3.50;99.90
21662;DHT22;10992;48.170;8.596;2024-01-30T02:05:49;3.20;99.90
21662;DHT22;10992;48.170;8.596;2024-01-30T02:08:17;3.00;99.90
21662;DHT22;10992;48.170;8.596;2024-01-30T02:10:43;2.90;99.90
21662;DHT22;10992;48.170;8.596;2024-01-30T02:13:10;2.80;99.90
21662;DHT22;10992;48.170;8.596;2024-01-30T02:15:37;3.00;99.90
21662;DHT22;10992;48.170;8.596;2024-01-30T02:18:04;3.20;99.90
21662;DHT22;10992;48.170;8.596;2024-01-30T02:20:34;3.30;99.90
21662;DHT22;10992;48.170;8.596;2024-01-30T02:23:02;3.50;99.90
21662;DHT22;10992;48.170;8.596;2024-01-30T02:25:39;3.50;99.90
21662;DHT22;10992;48.170;8.596;2024-01-30T02:28:14;3.50;99.90
21662;DHT22;10992;48.170;8.596;2024-01-30T02:30:44;3.40;99.90
21662;DHT22;10992;48.170;8.596;2024-01-30T02:33:11;3.50;99.90
21662;DHT22;10992;48.170;8.596;2024-01-30T02:35:38;3.60;99.90
21662;DHT22;10992;48.170;8.596;2024-01-30T02:38:05;3.60;99.90
21662;DHT22;10992;48.170;8.596;2024-01-30T02:40:32;3.60;99.90
21662;DHT22;10992;48.170;8.596;2024-01-30T02:43:01;3.60;99.90
21662;DHT22;10992;48.170;8.596;2024-01-30T02:45:28;3.70;99.90
21662;DHT22;10992;48.170;8.596;2024-01-30T02:47:54;3.60;99.90
21662;DHT22;10992;48.170;8.596;2024-01-30T02:50:21;3.60;99.90
21662;DHT22;10992;48.170;8.596;2024-01-30T02:52:48;3.60;99.90
21662;DHT22;10992;48.170;8.596;2024-01-30T02:55:15;3.60;99.90
21662;DHT22;10992;48.170;8.596;2024-01-30T02:57:46;3.70;99.90
21662;DHT22;10992;48.170;8.596;2024-01-30T03:00:13;3.70;99.90
21662;DHT22;10992;48.170;8.596;2024-01-30T03:02:40;3.80;99.90
21662;DHT22;10992;48.170;8.596;2024-01-30T03:05:08;3.90;99.90
21662;DHT22;10992;48.170;8.596;2024-01-30T03:07:35;4.10;99.90
21662;DHT22;10992;48.170;8.596;2024-01-30T03:10:02;4.20;99.90
21662;DHT22;10992;48.170;8.596;2024-01-30T03:12:32;4.20;99.90
21662;DHT22;10992;48.170;8.596;2024-01-30T03:14:59;4.20;99.90
21662;DHT22;10992;48.170;8.596;2024-01-30T03:17:25;4.20;99.90
21662;DHT22;10992;48.170;8.596;2024-01-30T03:19:52;4.20;99.90
21662;DHT22;10992;48.170;8.596;2024-01-30T03:22:19;4.20;99.90
21662;DHT22;10992;48.170;8.596;2024-01-30T03:24:46;4.30;99.90
21662;DHT22;10992;48.170;8.596;2024-01-30T03:27:13;4.30;99.90
21662;DHT22;10992;48.170;8.596;2024-01-30T03:29:39;4.30;99.90
21662;DHT22;10992;48.170;8.596;2024-01-30T03:32:06;4.30;99.90
21662;DHT22;10992;48.170;8.596;2024-01-30T03:34:33;4.30;99.90
21662;DHT22;10992;48.170;8.596;2024-01-30T03:37:00;4.30;99.90
21662;DHT22;10992;48.170;8.596;2024-01-30T03:39:27;4.20;99.90
21662;DHT22;10992;48.170;8.596;2024-01-30T03:41:54;4.20;99.90
21662;DHT22;10992;48.170;8.596;2024-01-30T03:44:20;4.20;99.90
21662;DHT22;10992;48.170;8.596;2024-01-30T03:46:47;4.10;99.90
21662;DHT22;10992;48.170;8.596;2024-01-30T03:49:14;4.00;99.90
21662;DHT22;10992;48.170;8.596;2024-01-30T03:51:41;3.90;99.90
21662;DHT22;10992;48.170;8.596;2024-01-30T03:54:08;3.90;99.90
21662;DHT22;10992;48.170;8.596;2024-01-30T03:56:35;3.90;99.90
21662;DHT22;10992;48.170;8.596;2024-01-30T03:59:01;3.90;99.90
21662;DHT22;10992;48.170;8.596;2024-01-30T04:01:29;3.80;99.90
21662;DHT22;10992;48.170;8.596;2024-01-30T04:03:56;3.80;99.90
21662;DHT22;10992;48.170;8.596;2024-01-30T04:06:23;3.80;99.90
21662;DHT22;10992;48.170;8.596;2024-01-30T04:08:50;3.80;99.90
21662;DHT22;10992;48.170;8.596;2024-01-30T04:11:18;3.80;99.90
21662;DHT22;10992;48.170;8.596;2024-01-30T04:13:46;3.80;99.90
21662;DHT22;10992;48.170;8.596;2024-01-30T04:16:21;3.80;99.90
21662;DHT22;10992;48.170;8.596;2024-01-30T04:18:49;3.70;99.90
21662;DHT22;10992;48.170;8.596;2024-01-30T04:21:16;3.70;99.90
21662;DHT22;10992;48.170;8.596;2024-01-30T04:23:43;3.60;99.90
21662;DHT22;10992;48.170;8.596;2024-01-30T04:26:10;3.60;99.90
21662;DHT22;10992;48.170;8.596;2024-01-30T04:28:37;3.50;99.90
21662;DHT22;10992;48.170;8.596;2024-01-30T04:31:04;3.40;99.90
21662;DHT22;10992;48.170;8.596;2024-01-30T04:33:31;3.30;99.90
21662;DHT22;10992;48.170;8.596;2024-01-30T04:35:58;3.30;99.90
21662;DHT22;10992;48.170;8.596;2024-01-30T04:38:24;3.30;99.90
21662;DHT22;10992;48.170;8.596;2024-01-30T04:40:51;3.20;99.90
21662;DHT22;10992;48.170;8.596;2024-01-30T04:43:18;3.20;99.90
21662;DHT22;10992;48.170;8.596;2024-01-30T04:45:46;3.30;99.90
21662;DHT22;10992;48.170;8.596;2024-01-30T04:48:12;3.30;99.90
21662;DHT22;10992;48.170;8.596;2024-01-30T04:50:40;3.30;99.90
21662;DHT22;10992;48.170;8.596;2024-01-30T04:53:07;3.30;99.90
21662;DHT22;10992;48.170;8.596;2024-01-30T04:55:35;3.40;99.90
21662;DHT22;10992;48.170;8.596;2024-01-30T04:58:02;3.50;99.90
21662;DHT22;10992;48.170;8.596;2024-01-30T05:00:29;3.50;99.90
21662;DHT22;10992;48.170;8.596;2024-01-30T05:02:56;3.50;99.90
21662;DHT22;10992;48.170;8.596;2024-01-30T05:05:23;3.50;99.90
21662;DHT22;10992;48.170;8.596;2024-01-30T05:07:49;3.60;99.90
21662;DHT22;10992;48.170;8.596;2024-01-30T05:10:16;3.60;99.90
21662;DHT22;10992;48.170;8.596;2024-01-30T05:12:43;3.60;99.90
21662;DHT22;10992;48.170;8.596;2024-01-30T05:15:10;3.60;99.90
21662;DHT22;10992;48.170;8.596;2024-01-30T05:17:37;3.60;99.90
21662;DHT22;10992;48.170;8.596;2024-01-30T05:20:04;3.60;99.90
21662;DHT22;10992;48.170;8.596;2024-01-30T05:22:31;3.60;99.90
21662;DHT22;10992;48.170;8.596;2024-01-30T05:24:58;3.50;99.90
21662;DHT22;10992;48.170;8.596;2024-01-30T05:27:25;3.50;99.90
21662;DHT22;10992;48.170;8.596;2024-01-30T05:29:52;3.40;99.90
21662;DHT22;10992;48.170;8.596;2024-01-30T05:32:18;3.40;99.90
21662;DHT22;10992;48.170;8.596;2024-01-30T05:34:45;3.30;99.90
21662;DHT22;10992;48.170;8.596;2024-01-30T05:37:12;3.30;99.90
21662;DHT22;10992;48.170;8.596;2024-01-30T05:39:43;3.20;99.90
21662;DHT22;10992;48.170;8.596;2024-01-30T05:42:10;3.20;99.90
21662;DHT22;10992;48.170;8.596;2024-01-30T05:44:37;3.20;99.90
21662;DHT22;10992;48.170;8.596;2024-01-30T05:47:04;3.20;99.90
21662;DHT22;10992;48.170;8.596;2024-01-30T05:49:31;3.10;99.90
21662;DHT22;10992;48.170;8.596;2024-01-30T05:51:57;3.00;99.90
21662;DHT22;10992;48.170;8.596;2024-01-30T05:54:24;3.00;99.90
21662;DHT22;10992;48.170;8.596;2024-01-30T05:56:51;3.00;99.90
21662;DHT22;10992;48.170;8.596;2024-01-30T05:59:18;3.00;99.90
21662;DHT22;10992;48.170;8.596;2024-01-30T06:01:48;3.00;99.90
21662;DHT22;10992;48.170;8.596;2024-01-30T06:04:16;3.10;99.90
21662;DHT22;10992;48.170;8.596;2024-01-30T06:06:43;3.20;99.90
21662;DHT22;10992;48.170;8.596;2024-01-30T06:09:10;3.40;99.90
21662;DHT22;10992;48.170;8.596;2024-01-30T06:11:36;3.50;99.90
21662;DHT22;10992;48.170;8.596;2024-01-30T06:14:03;3.50;99.90
21662;DHT22;10992;48.170;8.596;2024-01-30T06:16:30;3.60;99.90
21662;DHT22;10992;48.170;8.596;2024-01-30T06:18:57;3.50;99.90
21662;DHT22;10992;48.170;8.596;2024-01-30T06:21:24;3.50;99.90
21662;DHT22;10992;48.170;8.596;2024-01-30T06:23:51;3.50;99.90
21662;DHT22;10992;48.170;8.596;2024-01-30T06:26:18;3.40;99.90
21662;DHT22;10992;48.170;8.596;2024-01-30T06:28:45;3.30;99.90
21662;DHT22;10992;48.170;8.596;2024-01-30T06:31:11;3.30;99.90
21662;DHT22;10992;48.170;8.596;2024-01-30T06:33:38;3.30;99.90
21662;DHT22;10992;48.170;8.596;2024-01-30T06:36:05;3.20;99.90
21662;DHT22;10992;48.170;8.596;2024-01-30T06:38:32;3.20;99.90
21662;DHT22;10992;48.170;8.596;2024-01-30T06:40:59;3.10;99.90
21662;DHT22;10992;48.170;8.596;2024-01-30T06:43:26;3.00;99.90
21662;DHT22;10992;48.170;8.596;2024-01-30T06:45:53;3.00;99.90
21662;DHT22;10992;48.170;8.596;2024-01-30T06:48:20;2.90;99.90
21662;DHT22;10992;48.170;8.596;2024-01-30T06:50:46;3.40;99.90
21662;DHT22;10992;48.170;8.596;2024-01-30T06:53:14;3.70;99.90
21662;DHT22;10992;48.170;8.596;2024-01-30T06:55:41;3.90;99.90
21662;DHT22;10992;48.170;8.596;2024-01-30T06:58:08;3.90;99.90
21662;DHT22;10992;48.170;8.596;2024-01-30T07:00:35;4.00;99.90
21662;DHT22;10992;48.170;8.596;2024-01-30T07:03:03;4.10;99.90
21662;DHT22;10992;48.170;8.596;2024-01-30T07:05:29;3.80;99.90
21662;DHT22;10992;48.170;8.596;2024-01-30T07:07:56;3.30;99.90
21662;DHT22;10992;48.170;8.596;2024-01-30T07:10:24;3.00;99.90
21662;DHT22;10992;48.170;8.596;2024-01-30T07:12:51;2.80;99.90
21662;DHT22;10992;48.170;8.596;2024-01-30T07:15:18;2.60;99.90
21662;DHT22;10992;48.170;8.596;2024-01-30T07:17:47;2.50;99.90
21662;DHT22;10992;48.170;8.596;2024-01-30T07:20:14;2.50;99.90
21662;DHT22;10992;48.170;8.596;2024-01-30T07:22:44;2.40;99.90
21662;DHT22;10992;48.170;8.596;2024-01-30T07:25:11;2.50;99.90
21662;DHT22;10992;48.170;8.596;2024-01-30T07:27:38;2.40;99.90
21662;DHT22;10992;48.170;8.596;2024-01-30T07:30:05;2.50;99.90
21662;DHT22;10992;48.170;8.596;2024-01-30T07:32:32;2.50;99.90
21662;DHT22;10992;48.170;8.596;2024-01-30T07:34:59;2.50;99.90
21662;DHT22;10992;48.170;8.596;2024-01-30T07:37:34;2.50;99.90
21662;DHT22;10992;48.170;8.596;2024-01-30T07:40:03;2.50;99.90
21662;DHT22;10992;48.170;8.596;2024-01-30T07:42:30;2.60;99.90
21662;DHT22;10992;48.170;8.596;2024-01-30T07:44:57;2.70;99.90
21662;DHT22;10992;48.170;8.596;2024-01-30T07:47:24;2.80;99.90
21662;DHT22;10992;48.170;8.596;2024-01-30T07:49:51;2.90;99.90
21662;DHT22;10992;48.170;8.596;2024-01-30T07:52:18;3.10;99.90
21662;DHT22;10992;48.170;8.596;2024-01-30T07:54:45;3.20;99.90
21662;DHT22;10992;48.170;8.596;2024-01-30T07:57:12;3.30;99.90
21662;DHT22;10992;48.170;8.596;2024-01-30T07:59:39;3.40;99.90
21662;DHT22;10992;48.170;8.596;2024-01-30T08:02:06;3.40;99.90
21662;DHT22;10992;48.170;8.596;2024-01-30T08:04:33;3.50;99.90
21662;DHT22;10992;48.170;8.596;2024-01-30T08:07:00;3.60;99.90
21662;DHT22;10992;48.170;8.596;2024-01-30T08:09:27;3.60;99.90
21662;DHT22;10992;48.170;8.596;2024-01-30T08:11:54;3.80;99.90
21662;DHT22;10992;48.170;8.596;2024-01-30T08:14:21;4.10;99.90
21662;DHT22;10992;48.170;8.596;2024-01-30T08:16:48;4.60;99.90
21662;DHT22;10992;48.170;8.596;2024-01-30T08:19:18;4.90;99.90
21662;DHT22;10992;48.170;8.596;2024-01-30T08:21:45;5.30;99.90
21662;DHT22;10992;48.170;8.596;2024-01-30T08:24:12;5.70;99.90
21662;DHT22;10992;48.170;8.596;2024-01-30T08:26:39;6.10;99.90
21662;DHT22;10992;48.170;8.596;2024-01-30T08:29:06;6.50;99.90
21662;DHT22;10992;48.170;8.596;2024-01-30T08:31:33;6.70;99.90
21662;DHT22;10992;48.170;8.596;2024-01-30T08:34:00;7.10;99.90
21662;DHT22;10992;48.170;8.596;2024-01-30T08:36:27;7.40;99.90
21662;DHT22;10992;48.170;8.596;2024-01-30T08:38:53;7.40;99.90
21662;DHT22;10992;48.170;8.596;2024-01-30T08:41:27;7.60;99.90
21662;DHT22;10992;48.170;8.596;2024-01-30T08:43:54;7.70;99.90
21662;DHT22;10992;48.170;8.596;2024-01-30T08:46:21;7.40;99.90
21662;DHT22;10992;48.170;8.596;2024-01-30T08:48:48;7.20;99.90
21662;DHT22;10992;48.170;8.596;2024-01-30T08:51:15;7.00;99.90
21662;DHT22;10992;48.170;8.596;2024-01-30T08:53:42;7.00;99.90
21662;DHT22;10992;48.170;8.596;2024-01-30T08:56:09;7.00;99.90
21662;DHT22;10992;48.170;8.596;2024-01-30T08:58:36;7.20;99.90
21662;DHT22;10992;48.170;8.596;2024-01-30T09:01:03;7.30;99.90
21662;DHT22;10992;48.170;8.596;2024-01-30T09:03:32;7.30;99.90
21662;DHT22;10992;48.170;8.596;2024-01-30T09:05:59;7.30;99.90
21662;DHT22;10992;48.170;8.596;2024-01-30T09:08:26;7.30;99.90
21662;DHT22;10992;48.170;8.596;2024-01-30T09:10:52;7.30;99.90
21662;DHT22;10992;48.170;8.596;2024-01-30T09:13:20;7.20;99.90
21662;DHT22;10992;48.170;8.596;2024-01-30T09:15:47;7.30;99.90
21662;DHT22;10992;48.170;8.596;2024-01-30T09:18:13;7.40;99.90
21662;DHT22;10992;48.170;8.596;2024-01-30T09:20:40;7.50;99.90
21662;DHT22;10992;48.170;8.596;2024-01-30T09:23:07;7.70;99.90
21662;DHT22;10992;48.170;8.596;2024-01-30T09:25:35;7.80;99.90
21662;DHT22;10992;48.170;8.596;2024-01-30T09:28:02;8.30;99.90
21662;DHT22;10992;48.170;8.596;2024-01-30T09:30:34;8.30;99.90
21662;DHT22;10992;48.170;8.596;2024-01-30T09:33:01;8.90;99.90
21662;DHT22;10992;48.170;8.596;2024-01-30T09:35:28;9.00;99.90
21662;DHT22;10992;48.170;8.596;2024-01-30T09:37:56;8.80;99.90
21662;DHT22;10992;48.170;8.596;2024-01-30T09:40:24;8.40;99.90
21662;DHT22;10992;48.170;8.596;2024-01-30T09:42:51;8.30;99.90
21662;DHT22;10992;48.170;8.596;2024-01-30T09:45:18;8.30;99.90
21662;DHT22;10992;48.170;8.596;2024-01-30T09:47:46;8.20;99.90
21662;DHT22;10992;48.170;8.596;2024-01-30T09:50:14;8.20;99.90
21662;DHT22;10992;48.170;8.596;2024-01-30T09:52:42;8.20;99.90
21662;DHT22;10992;48.170;8.596;2024-01-30T09:55:09;8.30;99.90
21662;DHT22;10992;48.170;8.596;2024-01-30T09:57:37;8.40;99.90
21662;DHT22;10992;48.170;8.596;2024-01-30T10:00:04;8.80;99.90
21662;DHT22;10992;48.170;8.596;2024-01-30T10:02:40;9.10;99.90
21662;DHT22;10992;48.170;8.596;2024-01-30T10:05:08;9.50;99.90
21662;DHT22;10992;48.170;8.596;2024-01-30T10:07:36;9.00;99.90
21662;DHT22;10992;48.170;8.596;2024-01-30T10:10:05;8.90;99.90
21662;DHT22;10992;48.170;8.596;2024-01-30T10:12:33;8.60;99.90
21662;DHT22;10992;48.170;8.596;2024-01-30T10:15:00;8.50;99.90
21662;DHT22;10992;48.170;8.596;2024-01-30T10:17:27;8.50;99.90
21662;DHT22;10992;48.170;8.596;2024-01-30T10:19:59;8.50;99.90
21662;DHT22;10992;48.170;8.596;2024-01-30T10:22:28;8.60;99.90
21662;DHT22;10992;48.170;8.596;2024-01-30T10:24:55;9.10;99.90
21662;DHT22;10992;48.170;8.596;2024-01-30T10:27:29;9.10;99.90
21662;DHT22;10992;48.170;8.596;2024-01-30T10:29:59;9.40;99.90
21662;DHT22;10992;48.170;8.596;2024-01-30T10:32:27;9.80;99.90
21662;DHT22;10992;48.170;8.596;2024-01-30T10:34:54;10.30;99.90
21662;DHT22;10992;48.170;8.596;2024-01-30T10:37:22;10.20;99.90
21662;DHT22;10992;48.170;8.596;2024-01-30T10:39:53;10.50;99.90
21662;DHT22;10992;48.170;8.596;2024-01-30T10:42:26;11.10;99.90
21662;DHT22;10992;48.170;8.596;2024-01-30T10:47:25;10.90;99.90
21662;DHT22;10992;48.170;8.596;2024-01-30T10:49:54;10.70;99.90
21662;DHT22;10992;48.170;8.596;2024-01-30T10:52:23;10.50;99.90
21662;DHT22;10992;48.170;8.596;2024-01-30T10:54:53;10.40;99.90
21662;DHT22;10992;48.170;8.596;2024-01-30T10:57:23;10.40;99.90
21662;DHT22;10992;48.170;8.596;2024-01-30T10:59:53;10.50;99.90
21662;DHT22;10992;48.170;8.596;2024-01-30T11:02:21;10.50;99.90
21662;DHT22;10992;48.170;8.596;2024-01-30T11:04:55;10.20;99.90
21662;DHT22;10992;48.170;8.596;2024-01-30T11:07:27;10.20;99.90
21662;DHT22;10992;48.170;8.596;2024-01-30T11:12:26;10.20;99.90
21662;DHT22;10992;48.170;8.596;2024-01-30T11:15:06;10.10;99.90
21662;DHT22;10992;48.170;8.596;2024-01-30T11:20:20;10.10;99.90
21662;DHT22;10992;48.170;8.596;2024-01-30T11:22:50;9.90;99.90
21662;DHT22;10992;48.170;8.596;2024-01-30T11:25:20;9.90;99.90
21662;DHT22;10992;48.170;8.596;2024-01-30T11:27:50;9.80;99.90
21662;DHT22;10992;48.170;8.596;2024-01-30T11:30:24;9.70;99.90
21662;DHT22;10992;48.170;8.596;2024-01-30T11:33:08;9.60;99.90
21662;DHT22;10992;48.170;8.596;2024-01-30T11:38:04;9.60;99.90
21662;DHT22;10992;48.170;8.596;2024-01-30T11:40:36;9.90;99.90
21662;DHT22;10992;48.170;8.596;2024-01-30T11:43:04;9.90;99.90
21662;DHT22;10992;48.170;8.596;2024-01-30T11:45:33;9.80;99.90
21662;DHT22;10992;48.170;8.596;2024-01-30T11:48:00;9.90;99.90
21662;DHT22;10992;48.170;8.596;2024-01-30T11:50:31;9.80;99.90
21662;DHT22;10992;48.170;8.596;2024-01-30T11:53:02;9.80;99.90
21662;DHT22;10992;48.170;8.596;2024-01-30T11:55:30;9.90;99.90
21662;DHT22;10992;48.170;8.596;2024-01-30T11:58:01;10.10;99.90
21662;DHT22;10992;48.170;8.596;2024-01-30T12:00:28;10.00;99.90
21662;DHT22;10992;48.170;8.596;2024-01-30T12:02:57;10.20;99.90
21662;DHT22;10992;48.170;8.596;2024-01-30T12:05:28;10.30;99.90
21662;DHT22;10992;48.170;8.596;2024-01-30T12:07:59;10.30;99.90
21662;DHT22;10992;48.170;8.596;2024-01-30T12:10:27;10.70;99.90
21662;DHT22;10992;48.170;8.596;2024-01-30T12:12:55;10.80;99.90
21662;DHT22;10992;48.170;8.596;2024-01-30T12:15:22;10.60;99.90
21662;DHT22;10992;48.170;8.596;2024-01-30T12:17:49;10.50;99.90
21662;DHT22;10992;48.170;8.596;2024-01-30T12:20:19;10.40;99.90
21662;DHT22;10992;48.170;8.596;2024-01-30T12:22:49;10.40;99.90
21662;DHT22;10992;48.170;8.596;2024-01-30T12:25:18;10.30;99.90
21662;DHT22;10992;48.170;8.596;2024-01-30T12:27:47;10.30;99.90
21662;DHT22;10992;48.170;8.596;2024-01-30T12:30:20;10.20;99.90
21662;DHT22;10992;48.170;8.596;2024-01-30T12:32:50;10.30;99.90
21662;DHT22;10992;48.170;8.596;2024-01-30T12:35:19;10.20;99.90
21662;DHT22;10992;48.170;8.596;2024-01-30T12:37:48;10.30;99.90
21662;DHT22;10992;48.170;8.596;2024-01-30T12:40:15;10.50;99.90
21662;DHT22;10992;48.170;8.596;2024-01-30T12:42:43;10.80;99.90
21662;DHT22;10992;48.170;8.596;2024-01-30T12:45:13;10.80;99.90
21662;DHT22;10992;48.170;8.596;2024-01-30T12:47:42;10.70;99.90
21662;DHT22;10992;48.170;8.596;2024-01-30T12:50:09;10.40;99.90
21662;DHT22;10992;48.170;8.596;2024-01-30T12:52:36;10.50;99.90
21662;DHT22;10992;48.170;8.596;2024-01-30T12:55:04;10.60;99.90
21662;DHT22;10992;48.170;8.596;2024-01-30T12:57:31;10.70;99.90
21662;DHT22;10992;48.170;8.596;2024-01-30T12:59:58;10.90;99.90
21662;DHT22;10992;48.170;8.596;2024-01-30T13:02:25;11.10;99.90
21662;DHT22;10992;48.170;8.596;2024-01-30T13:04:54;11.80;99.90
21662;DHT22;10992;48.170;8.596;2024-01-30T13:07:21;12.60;99.90
21662;DHT22;10992;48.170;8.596;2024-01-30T13:09:48;13.00;99.90
21662;DHT22;10992;48.170;8.596;2024-01-30T13:12:15;13.20;99.90
21662;DHT22;10992;48.170;8.596;2024-01-30T13:14:42;13.30;99.90
21662;DHT22;10992;48.170;8.596;2024-01-30T13:17:09;13.50;99.90
21662;DHT22;10992;48.170;8.596;2024-01-30T13:19:36;13.20;99.90
21662;DHT22;10992;48.170;8.596;2024-01-30T13:22:03;12.90;99.90
21662;DHT22;10992;48.170;8.596;2024-01-30T13:24:30;12.30;99.90
21662;DHT22;10992;48.170;8.596;2024-01-30T13:26:58;12.30;99.90
21662;DHT22;10992;48.170;8.596;2024-01-30T13:29:25;12.30;99.90
21662;DHT22;10992;48.170;8.596;2024-01-30T13:31:51;12.30;99.90
21662;DHT22;10992;48.170;8.596;2024-01-30T13:34:21;12.10;99.90
21662;DHT22;10992;48.170;8.596;2024-01-30T13:36:48;12.30;99.90
21662;DHT22;10992;48.170;8.596;2024-01-30T13:39:15;12.50;99.90
21662;DHT22;10992;48.170;8.596;2024-01-30T13:41:42;12.50;99.90
21662;DHT22;10992;48.170;8.596;2024-01-30T13:44:09;12.80;99.90
21662;DHT22;10992;48.170;8.596;2024-01-30T13:46:36;13.20;99.90
21662;DHT22;10992;48.170;8.596;2024-01-30T13:49:03;13.30;99.90
21662;DHT22;10992;48.170;8.596;2024-01-30T13:51:30;12.90;99.90
21662;DHT22;10992;48.170;8.596;2024-01-30T13:53:59;12.90;99.90
21662;DHT22;10992;48.170;8.596;2024-01-30T13:56:26;13.10;99.90
21662;DHT22;10992;48.170;8.596;2024-01-30T13:58:53;12.70;99.90
21662;DHT22;10992;48.170;8.596;2024-01-30T14:01:22;12.60;99.90
21662;DHT22;10992;48.170;8.596;2024-01-30T14:03:49;12.40;99.90
21662;DHT22;10992;48.170;8.596;2024-01-30T14:06:16;12.20;99.90
21662;DHT22;10992;48.170;8.596;2024-01-30T14:08:43;12.10;99.90
21662;DHT22;10992;48.170;8.596;2024-01-30T14:11:22;11.70;99.90
21662;DHT22;10992;48.170;8.596;2024-01-30T14:13:49;11.70;99.90
21662;DHT22;10992;48.170;8.596;2024-01-30T14:16:17;11.50;99.90
21662;DHT22;10992;48.170;8.596;2024-01-30T14:18:43;11.50;99.90
21662;DHT22;10992;48.170;8.596;2024-01-30T14:21:10;11.20;99.90
21662;DHT22;10992;48.170;8.596;2024-01-30T14:23:37;11.10;99.90
21662;DHT22;10992;48.170;8.596;2024-01-30T14:26:04;11.00;99.90
21662;DHT22;10992;48.170;8.596;2024-01-30T14:28:31;10.90;99.90
21662;DHT22;10992;48.170;8.596;2024-01-30T14:30:57;10.80;99.90
21662;DHT22;10992;48.170;8.596;2024-01-30T14:33:24;10.70;99.90
21662;DHT22;10992;48.170;8.596;2024-01-30T14:35:52;10.70;99.90
21662;DHT22;10992;48.170;8.596;2024-01-30T14:38:19;10.50;99.90
21662;DHT22;10992;48.170;8.596;2024-01-30T14:40:46;10.40;99.90
21662;DHT22;10992;48.170;8.596;2024-01-30T14:43:13;10.30;99.90
21662;DHT22;10992;48.170;8.596;2024-01-30T14:45:40;10.30;99.90
21662;DHT22;10992;48.170;8.596;2024-01-30T14:48:09;10.20;99.90
21662;DHT22;10992;48.170;8.596;2024-01-30T14:50:36;10.10;99.90
21662;DHT22;10992;48.170;8.596;2024-01-30T14:53:03;10.10;99.90
21662;DHT22;10992;48.170;8.596;2024-01-30T14:55:30;10.00;99.90
21662;DHT22;10992;48.170;8.596;2024-01-30T14:57:56;10.00;99.90
21662;DHT22;10992;48.170;8.596;2024-01-30T15:00:25;10.00;99.90
21662;DHT22;10992;48.170;8.596;2024-01-30T15:02:53;9.90;99.90
21662;DHT22;10992;48.170;8.596;2024-01-30T15:05:19;9.80;99.90
21662;DHT22;10992;48.170;8.596;2024-01-30T15:07:46;9.80;99.90
21662;DHT22;10992;48.170;8.596;2024-01-30T15:10:13;9.70;99.90
21662;DHT22;10992;48.170;8.596;2024-01-30T15:12:41;9.70;99.90
21662;DHT22;10992;48.170;8.596;2024-01-30T15:15:08;9.60;99.90
21662;DHT22;10992;48.170;8.596;2024-01-30T15:17:36;9.50;99.90
21662;DHT22;10992;48.170;8.596;2024-01-30T15:20:04;9.40;99.90
21662;DHT22;10992;48.170;8.596;2024-01-30T15:22:31;9.40;99.90
21662;DHT22;10992;48.170;8.596;2024-01-30T15:24:58;9.30;99.90
21662;DHT22;10992;48.170;8.596;2024-01-30T15:27:26;9.30;99.90
21662;DHT22;10992;48.170;8.596;2024-01-30T15:29:56;9.30;99.90
21662;DHT22;10992;48.170;8.596;2024-01-30T15:32:23;9.20;99.90
21662;DHT22;10992;48.170;8.596;2024-01-30T15:34:49;9.20;99.90
21662;DHT22;10992;48.170;8.596;2024-01-30T15:37:17;9.10;99.90
21662;DHT22;10992;48.170;8.596;2024-01-30T15:39:44;9.00;99.90
21662;DHT22;10992;48.170;8.596;2024-01-30T15:42:11;9.00;99.90
21662;DHT22;10992;48.170;8.596;2024-01-30T15:44:39;8.90;99.90
21662;DHT22;10992;48.170;8.596;2024-01-30T15:47:06;8.90;99.90
21662;DHT22;10992;48.170;8.596;2024-01-30T15:49:33;8.80;99.90
21662;DHT22;10992;48.170;8.596;2024-01-30T15:52:00;8.80;99.90
21662;DHT22;10992;48.170;8.596;2024-01-30T15:54:27;8.70;99.90